Time;durP1;ratioP1;P1;durP2;ratioP2;P2;SDS_P1;SDS_P2;PMS_P1;PMS_P2;Temp;Humidity;BMP_temperature;BMP_pressure;BME280_temperature;BME280_humidity;BME280_pressure;Samples;Min_cycle;Max_cycle;Signal;HPM_P1;HPM_P2
2023/10/10 00:01:41;;;;;;;30.67;14.20;;;15.30;77.40;;;;;;5109523;27;20526;-77
2023/10/10 00:04:10;;;;;;;35.77;15.20;;;15.40;77.40;;;;;;5102393;28;20464;-79
2023/10/10 00:06:39;;;;;;;29.97;13.80;;;15.30;77.30;;;;;;5098651;28;20452;-76
2023/10/10 00:09:10;;;;;;;23.70;11.37;;;15.30;77.40;;;;;;5100788;28;20545;-77
2023/10/10 00:11:47;;;;;;;22.70;10.50;;;15.30;77.50;;;;;;5101277;28;20513;-77
2023/10/10 00:14:18;;;;;;;21.90;10.00;;;15.20;77.40;;;;;;5120054;27;20448;-78
2023/10/10 00:16:54;;;;;;;19.80;9.40;;;15.20;77.40;;;;;;5101887;28;20889;-78
2023/10/10 00:19:29;;;;;;;21.30;10.13;;;15.10;77.40;;;;;;5107000;28;20515;-78
2023/10/10 00:21:57;;;;;;;20.43;8.33;;;15.10;77.50;;;;;;5101220;28;20934;-76
2023/10/10 00:24:30;;;;;;;11.90;7.03;;;15.10;77.50;;;;;;5101711;28;20459;-78
2023/10/10 00:27:00;;;;;;;17.37;8.20;;;15.00;77.50;;;;;;5104435;28;20471;-78
2023/10/10 00:29:28;;;;;;;12.50;6.60;;;15.00;77.60;;;;;;5101043;28;20462;-78
2023/10/10 00:32:05;;;;;;;14.83;7.33;;;15.00;77.60;;;;;;5102951;28;20471;-77
2023/10/10 00:34:37;;;;;;;18.40;8.80;;;15.00;77.60;;;;;;5105647;28;20443;-77
2023/10/10 00:37:09;;;;;;;13.30;7.23;;;15.00;77.60;;;;;;5103637;28;20493;-76
2023/10/10 00:39:38;;;;;;;15.13;6.80;;;15.00;77.60;;;;;;5101122;28;20480;-78
2023/10/10 00:42:08;;;;;;;14.30;7.87;;;15.00;77.60;;;;;;5100326;28;21275;-75
2023/10/10 00:44:38;;;;;;;14.10;7.20;;;15.00;77.60;;;;;;5100824;28;20992;-78
2023/10/10 00:47:25;;;;;;;15.07;6.83;;;14.90;77.60;;;;;;5103333;28;20459;-78
2023/10/10 00:49:55;;;;;;;12.87;6.50;;;14.90;77.70;;;;;;5101982;28;20451;-77
2023/10/10 00:52:23;;;;;;;12.60;6.40;;;14.90;77.80;;;;;;5102488;28;20756;-80
2023/10/10 00:54:53;;;;;;;18.83;8.30;;;14.90;77.80;;;;;;5101531;28;21118;-77
2023/10/10 00:57:21;;;;;;;17.30;7.10;;;14.90;77.90;;;;;;5103061;28;20543;-77
2023/10/10 00:59:54;;;;;;;15.93;7.57;;;14.90;77.90;;;;;;5102959;28;20480;-77
2023/10/10 01:02:23;;;;;;;17.47;8.20;;;14.90;77.90;;;;;;5104819;28;20575;-76
2023/10/10 01:04:57;;;;;;;17.13;6.83;;;14.90;78.00;;;;;;5104374;28;20452;-77
2023/10/10 01:07:28;;;;;;;16.00;7.90;;;14.90;78.00;;;;;;5106974;28;20456;-77
2023/10/10 01:09:59;;;;;;;21.00;7.30;;;14.90;78.00;;;;;;5102112;28;21030;-78
2023/10/10 01:12:35;;;;;;;14.63;6.67;;;14.90;78.00;;;;;;5107959;28;20476;-77
2023/10/10 01:15:08;;;;;;;16.30;7.40;;;14.90;78.00;;;;;;5103432;28;20513;-77
2023/10/10 01:17:38;;;;;;;16.00;6.63;;;14.90;78.10;;;;;;5101494;28;20509;-76
2023/10/10 01:20:17;;;;;;;14.50;6.67;;;14.90;78.00;;;;;;5106269;28;20814;-76
2023/10/10 01:22:51;;;;;;;21.63;7.63;;;14.80;78.10;;;;;;5103860;28;20488;-77
2023/10/10 01:25:42;;;;;;;17.33;7.20;;;14.80;78.10;;;;;;5109114;27;20858;-78
2023/10/10 01:28:22;;;;;;;17.00;7.80;;;14.80;78.10;;;;;;5116232;27;21003;-77
2023/10/10 01:30:59;;;;;;;13.90;6.70;;;14.80;78.10;;;;;;5099525;28;20862;-80
2023/10/10 01:33:42;;;;;;;13.13;7.40;;;14.80;78.20;;;;;;5103731;28;20500;-79
2023/10/10 01:36:19;;;;;;;17.27;6.97;;;14.80;78.20;;;;;;5119945;27;20958;-77
2023/10/10 01:39:19;;;;;;;15.67;7.00;;;14.80;78.20;;;;;;5101194;28;20488;-79
2023/10/10 01:41:49;;;;;;;16.37;6.73;;;14.80;78.20;;;;;;5106140;28;20469;-78
2023/10/10 01:44:21;;;;;;;17.63;7.60;;;14.80;78.30;;;;;;5104590;27;20483;-79
2023/10/10 01:46:54;;;;;;;15.87;6.83;;;14.80;78.40;;;;;;5102286;28;20456;-77
2023/10/10 01:49:25;;;;;;;16.13;6.93;;;14.90;78.30;;;;;;5122686;27;20451;-78
2023/10/10 01:51:55;;;;;;;13.90;7.10;;;14.80;78.30;;;;;;5117895;27;20452;-77
2023/10/10 01:54:34;;;;;;;11.90;6.83;;;14.80;78.30;;;;;;5102877;28;20459;-78
2023/10/10 01:57:07;;;;;;;15.50;6.93;;;14.90;78.30;;;;;;5104005;28;20467;-77
2023/10/10 01:59:38;;;;;;;17.27;7.67;;;14.80;78.30;;;;;;5102757;28;20530;-77
2023/10/10 02:02:13;;;;;;;12.80;6.33;;;14.80;78.30;;;;;;5106339;28;20472;-79
2023/10/10 02:04:44;;;;;;;14.40;6.93;;;14.80;78.30;;;;;;5103087;28;21173;-79
2023/10/10 02:07:22;;;;;;;18.13;6.97;;;14.80;78.30;;;;;;5100905;28;20479;-78
2023/10/10 02:10:00;;;;;;;12.37;6.07;;;14.80;78.30;;;;;;5104776;28;20636;-78
2023/10/10 02:12:33;;;;;;;15.23;6.60;;;14.80;78.20;;;;;;5079669;28;21147;-79
2023/10/10 02:15:02;;;;;;;15.63;6.30;;;14.80;78.10;;;;;;5105795;28;20455;-77
2023/10/10 02:17:30;;;;;;;15.83;7.40;;;14.80;78.10;;;;;;5094836;28;20467;-77
2023/10/10 02:20:17;;;;;;;13.73;7.20;;;14.80;78.20;;;;;;5083518;28;20583;-77
2023/10/10 02:22:51;;;;;;;13.47;6.73;;;14.80;78.20;;;;;;5103919;28;20866;-78
2023/10/10 02:25:40;;;;;;;12.47;6.43;;;14.80;78.20;;;;;;5082924;28;20495;-77
2023/10/10 02:28:20;;;;;;;15.37;6.30;;;14.80;78.20;;;;;;5102414;28;20460;-78
2023/10/10 02:30:52;;;;;;;15.20;7.03;;;14.70;78.10;;;;;;5089073;27;20463;-79
2023/10/10 02:33:30;;;;;;;13.70;6.53;;;14.70;78.10;;;;;;5115443;27;20454;-79
2023/10/10 02:35:59;;;;;;;17.27;7.73;;;14.70;78.10;;;;;;5123001;28;20486;-80
2023/10/10 02:38:33;;;;;;;15.23;7.60;;;14.60;78.10;;;;;;5124582;28;20512;-78
2023/10/10 02:41:26;;;;;;;14.47;7.67;;;14.60;78.10;;;;;;5112440;28;20557;-77
2023/10/10 02:44:04;;;;;;;13.90;6.70;;;14.60;78.10;;;;;;5104377;28;20456;-77
2023/10/10 02:46:39;;;;;;;15.03;6.37;;;14.50;78.10;;;;;;5123141;28;21229;-79
2023/10/10 02:49:13;;;;;;;12.37;6.07;;;14.50;78.20;;;;;;5127716;27;20508;-78
2023/10/10 02:51:45;;;;;;;14.40;6.90;;;14.50;78.20;;;;;;5105692;27;21009;-77
2023/10/10 02:54:33;;;;;;;10.80;6.60;;;14.50;78.10;;;;;;5113100;27;20520;-78
2023/10/10 02:59:51;;;;;;;17.43;7.00;;;14.40;78.20;;;;;;5106771;27;20523;-78
2023/10/10 03:02:21;;;;;;;14.60;7.00;;;14.40;78.30;;;;;;5120346;27;20548;-76
2023/10/10 03:05:07;;;;;;;14.40;7.13;;;14.40;78.30;;;;;;5126333;27;20466;-78
2023/10/10 03:07:35;;;;;;;14.77;6.50;;;14.40;78.30;;;;;;5125241;27;20895;-77
2023/10/10 03:10:37;;;;;;;35.77;8.47;;;14.40;78.40;;;;;;5129593;27;20475;-77
2023/10/10 03:13:27;;;;;;;12.50;6.40;;;14.30;78.30;;;;;;5110211;27;20524;-76
2023/10/10 03:16:12;;;;;;;18.70;8.00;;;14.30;78.50;;;;;;5125928;27;20967;-77
2023/10/10 03:18:53;;;;;;;17.90;7.03;;;14.30;78.50;;;;;;5115484;27;20463;-77
2023/10/10 03:21:35;;;;;;;21.43;8.13;;;14.30;78.40;;;;;;5113007;27;20485;-77
2023/10/10 03:24:20;;;;;;;14.13;8.20;;;14.30;78.50;;;;;;5107184;27;20457;-78
2023/10/10 03:26:59;;;;;;;16.33;7.20;;;14.30;78.50;;;;;;5128896;27;20537;-77
2023/10/10 03:29:46;;;;;;;15.83;7.60;;;14.30;78.50;;;;;;5108276;27;20964;-80
2023/10/10 03:32:26;;;;;;;13.17;7.00;;;14.30;78.60;;;;;;5123071;27;20471;-78
2023/10/10 03:35:05;;;;;;;15.53;7.20;;;14.30;78.70;;;;;;5104889;28;20484;-77
2023/10/10 03:37:41;;;;;;;16.67;7.57;;;14.30;78.70;;;;;;5107785;28;20467;-79
2023/10/10 03:40:27;;;;;;;15.47;7.93;;;14.40;78.80;;;;;;5109313;28;20835;-79
2023/10/10 05:23:47;;;;;;;16.33;7.43;;;14.00;78.20;;;;;;5097351;28;20455;-80
2023/10/10 05:26:19;;;;;;;15.10;7.30;;;13.90;78.10;;;;;;5105643;28;21045;-78
2023/10/10 05:28:48;;;;;;;15.90;8.43;;;13.90;78.10;;;;;;5104831;28;20458;-81
2023/10/10 05:31:19;;;;;;;14.87;7.77;;;13.90;78.10;;;;;;5100627;28;20922;-77
2023/10/10 05:33:48;;;;;;;16.20;7.97;;;13.80;78.20;;;;;;5105216;28;20460;-79
2023/10/10 05:36:18;;;;;;;24.83;8.23;;;13.80;78.20;;;;;;5098602;28;20458;-78
2023/10/10 05:38:48;;;;;;;17.53;8.20;;;13.80;78.10;;;;;;5100350;28;20458;-77
2023/10/10 05:41:19;;;;;;;16.70;8.10;;;13.80;78.10;;;;;;5089364;28;20510;-78
2023/10/10 05:43:49;;;;;;;16.67;8.97;;;13.70;78.10;;;;;;5101465;28;20467;-77
2023/10/10 05:46:19;;;;;;;17.40;7.43;;;13.70;78.00;;;;;;5104614;28;20465;-77
2023/10/10 05:48:47;;;;;;;19.73;9.60;;;13.60;78.10;;;;;;5104388;28;20554;-78
2023/10/10 05:51:15;;;;;;;15.13;8.00;;;13.60;78.20;;;;;;5081627;28;21047;-78
2023/10/10 05:53:46;;;;;;;17.43;8.27;;;13.60;78.20;;;;;;5103037;28;20458;-78
2023/10/10 05:56:15;;;;;;;20.10;10.10;;;13.60;78.30;;;;;;5105368;28;20448;-78
2023/10/10 05:58:47;;;;;;;17.13;8.70;;;13.60;78.40;;;;;;5101827;28;20536;-77
2023/10/10 06:01:16;;;;;;;13.77;8.13;;;13.60;78.40;;;;;;5111079;27;20505;-78
2023/10/10 06:03:45;;;;;;;14.90;8.67;;;13.60;78.40;;;;;;5125530;27;20482;-78
2023/10/10 06:06:15;;;;;;;16.53;8.83;;;13.60;78.50;;;;;;5129330;27;20465;-76
2023/10/10 06:08:44;;;;;;;19.17;8.87;;;13.60;78.50;;;;;;5108823;27;20462;-79
2023/10/10 06:11:14;;;;;;;20.13;9.30;;;13.70;78.60;;;;;;5125081;27;20456;-78
2023/10/10 06:13:45;;;;;;;16.33;9.30;;;13.70;78.70;;;;;;5110431;27;20466;-79
2023/10/10 06:16:14;;;;;;;19.10;10.03;;;13.70;78.60;;;;;;5125778;27;20483;-79
2023/10/10 06:18:47;;;;;;;21.40;8.93;;;13.80;78.70;;;;;;5125116;27;20453;-78
2023/10/10 06:21:15;;;;;;;16.47;8.87;;;13.80;78.60;;;;;;5123313;27;20459;-80
2023/10/10 06:23:44;;;;;;;21.03;9.57;;;13.80;78.50;;;;;;5126373;27;20542;-77
2023/10/10 06:26:13;;;;;;;15.77;8.93;;;13.70;78.50;;;;;;5119826;27;20476;-77
2023/10/10 06:28:47;;;;;;;17.20;8.40;;;13.70;78.60;;;;;;5127111;27;20486;-78
2023/10/10 06:31:19;;;;;;;20.07;9.37;;;13.80;78.70;;;;;;5106071;28;20474;-77
2023/10/10 06:33:50;;;;;;;14.60;8.23;;;13.80;78.70;;;;;;5097005;28;20473;-78
2023/10/10 06:36:33;;;;;;;16.60;8.63;;;13.80;78.70;;;;;;5106843;28;20448;-76
2023/10/10 06:41:47;;;;;;;18.03;8.80;;;13.80;78.70;;;;;;5114595;28;20936;-79
2023/10/10 06:44:17;;;;;;;17.00;8.97;;;13.90;78.70;;;;;;5108036;28;21116;-78
2023/10/10 06:46:48;;;;;;;16.70;8.53;;;13.90;78.80;;;;;;5089636;28;20539;-77
2023/10/10 06:49:20;;;;;;;17.10;8.73;;;14.00;78.80;;;;;;5109226;28;20537;-78
2023/10/10 06:51:50;;;;;;;23.10;9.80;;;14.00;78.80;;;;;;5100653;28;20499;-78
2023/10/10 06:54:27;;;;;;;22.03;9.80;;;14.10;78.80;;;;;;5105337;28;20478;-79
2023/10/10 06:57:04;;;;;;;20.63;12.27;;;14.10;78.90;;;;;;5108610;28;20462;-78
2023/10/10 06:59:35;;;;;;;21.80;11.57;;;14.10;78.90;;;;;;5091808;28;20452;-79
2023/10/10 07:02:13;;;;;;;30.53;13.27;;;14.20;78.90;;;;;;5109564;28;20499;-79
2023/10/10 07:04:42;;;;;;;29.23;15.37;;;14.20;78.90;;;;;;5108941;28;20448;-79
2023/10/10 07:07:18;;;;;;;37.50;21.30;;;14.20;79.00;;;;;;5109102;28;20449;-78
2023/10/10 07:09:48;;;;;;;44.77;22.70;;;14.30;79.20;;;;;;5113464;28;20442;-79
2023/10/10 07:12:16;;;;;;;42.33;21.57;;;14.30;79.20;;;;;;5111295;28;20448;-77
2023/10/10 07:14:45;;;;;;;36.70;19.60;;;14.40;79.30;;;;;;5112043;28;20948;-77
2023/10/10 07:17:16;;;;;;;42.63;20.63;;;14.40;79.30;;;;;;5107376;28;20536;-78
2023/10/10 07:21:04;;;;;;;34.03;19.43;;;14.50;79.50;;;;;;5109315;28;20439;-79
2023/10/10 07:22:44;;;;;;;38.13;18.80;;;14.60;79.50;;;;;;5092673;28;20480;-79
2023/10/10 07:25:31;;;;;;;32.30;17.30;;;14.70;79.60;;;;;;5109730;28;20911;-79
2023/10/10 07:28:00;;;;;;;28.87;14.60;;;14.70;79.60;;;;;;5112307;28;20454;-78
2023/10/10 07:30:35;;;;;;;23.10;11.53;;;14.80;79.70;;;;;;5111147;28;21053;-78
2023/10/10 07:33:12;;;;;;;16.30;10.27;;;14.90;79.70;;;;;;5089691;28;20466;-77
2023/10/10 07:35:44;;;;;;;22.37;10.40;;;14.90;79.80;;;;;;5114208;27;20836;-77
2023/10/10 07:38:15;;;;;;;21.63;10.07;;;15.00;80.00;;;;;;5117520;27;20452;-79
2023/10/10 07:40:43;;;;;;;17.00;9.27;;;15.10;80.00;;;;;;5111654;27;20457;-78
2023/10/10 07:43:12;;;;;;;17.67;9.97;;;15.10;80.20;;;;;;5115850;27;20467;-78
2023/10/10 07:45:44;;;;;;;17.00;9.70;;;15.20;80.30;;;;;;5121937;27;20448;-79
2023/10/10 07:51:06;;;;;;;16.43;8.77;;;15.30;80.70;;;;;;5115542;27;20452;-77
2023/10/10 07:53:42;;;;;;;22.97;10.40;;;15.30;80.70;;;;;;5108719;27;20459;-81
2023/10/10 07:56:11;;;;;;;19.50;8.90;;;15.40;80.80;;;;;;5110480;27;20454;-78
2023/10/10 07:58:49;;;;;;;19.77;10.10;;;15.50;80.90;;;;;;5114523;27;21042;-79
2023/10/10 08:01:27;;;;;;;16.77;9.80;;;15.60;80.90;;;;;;5114297;27;20809;-80
2023/10/10 08:03:56;;;;;;;24.23;10.23;;;15.60;80.90;;;;;;5105902;27;20471;-79
2023/10/10 08:06:25;;;;;;;15.10;8.97;;;15.70;80.90;;;;;;5111163;27;21066;-81
2023/10/10 08:09:18;;;;;;;18.63;8.80;;;15.70;80.90;;;;;;5109301;27;20459;-78
2023/10/10 08:11:45;;;;;;;19.23;7.93;;;15.80;81.00;;;;;;5098238;27;21102;-80
2023/10/10 08:14:17;;;;;;;18.23;9.53;;;15.90;81.00;;;;;;5110109;27;20458;-79
2023/10/10 08:16:46;;;;;;;15.70;8.80;;;15.90;81.00;;;;;;5102209;27;20463;-80
2023/10/10 08:19:15;;;;;;;16.03;8.30;;;16.00;81.00;;;;;;5106728;27;20467;-79
2023/10/10 08:21:49;;;;;;;17.00;8.30;;;16.10;81.00;;;;;;5116120;27;20529;-79
2023/10/10 08:24:19;;;;;;;17.37;8.13;;;16.10;81.10;;;;;;5115886;27;20582;-79
2023/10/10 08:26:51;;;;;;;18.70;9.40;;;16.10;81.20;;;;;;5115602;27;20558;-78
2023/10/10 08:29:25;;;;;;;20.10;9.03;;;16.20;81.20;;;;;;5114433;27;20541;-80
2023/10/10 08:31:54;;;;;;;16.70;8.53;;;16.30;81.10;;;;;;5094363;27;20584;-79
2023/10/10 08:34:24;;;;;;;15.80;8.80;;;16.30;81.10;;;;;;5090882;28;20453;-78
2023/10/10 08:37:02;;;;;;;14.70;8.00;;;16.40;81.20;;;;;;5091340;28;20452;-79
2023/10/10 08:39:35;;;;;;;16.07;7.77;;;16.50;81.30;;;;;;5093561;28;20455;-78
2023/10/10 08:42:10;;;;;;;13.73;7.43;;;16.50;81.30;;;;;;5085532;28;20461;-78
2023/10/10 08:44:40;;;;;;;15.83;7.43;;;16.60;81.40;;;;;;5088893;28;20564;-79
2023/10/10 08:47:16;;;;;;;13.60;8.00;;;16.70;81.40;;;;;;5089941;28;20514;-78
2023/10/10 08:49:47;;;;;;;17.60;8.60;;;16.80;81.50;;;;;;5092530;28;20475;-77
2023/10/10 08:52:17;;;;;;;14.73;7.93;;;16.90;81.70;;;;;;5087997;28;20463;-79
2023/10/10 08:54:47;;;;;;;15.47;7.73;;;16.90;81.80;;;;;;5098728;28;20450;-78
2023/10/10 08:57:25;;;;;;;13.83;7.33;;;17.00;81.70;;;;;;5093797;28;20447;-79
2023/10/10 08:59:54;;;;;;;18.13;7.70;;;17.10;81.70;;;;;;5086056;28;20821;-80
2023/10/10 09:02:22;;;;;;;13.90;7.27;;;17.20;81.70;;;;;;5105678;27;20508;-79
2023/10/10 09:04:52;;;;;;;13.13;7.03;;;17.30;81.70;;;;;;5115137;27;20507;-80
2023/10/10 09:07:27;;;;;;;14.60;7.47;;;17.40;81.50;;;;;;5108692;27;20488;-79
2023/10/10 09:10:04;;;;;;;12.60;6.70;;;17.60;81.30;;;;;;5114222;27;21174;-80
2023/10/10 09:12:34;;;;;;;15.70;7.90;;;17.70;81.30;;;;;;5107734;27;20517;-79
2023/10/10 09:15:13;;;;;;;14.00;6.17;;;17.70;81.10;;;;;;5113300;27;20460;-79
2023/10/10 09:17:41;;;;;;;14.70;6.53;;;17.80;81.00;;;;;;5110820;27;20465;-79
2023/10/10 09:20:18;;;;;;;18.20;6.30;;;17.90;80.80;;;;;;5111915;27;20519;-79
2023/10/10 09:22:51;;;;;;;15.30;7.70;;;17.90;80.70;;;;;;5104871;27;20523;-79
2023/10/10 09:25:22;;;;;;;16.77;6.97;;;18.00;80.60;;;;;;5104571;27;20484;-78
2023/10/10 09:28:03;;;;;;;16.57;7.07;;;18.10;80.40;;;;;;5110928;27;20501;-79
2023/10/10 09:30:33;;;;;;;16.40;6.23;;;18.10;80.20;;;;;;5107665;27;20493;-79
2023/10/10 09:33:13;;;;;;;12.13;6.07;;;18.10;80.10;;;;;;5112768;27;20546;-78
2023/10/10 09:35:48;;;;;;;18.80;6.63;;;18.20;80.00;;;;;;5114600;27;20453;-77
2023/10/10 09:38:20;;;;;;;12.37;6.00;;;18.30;79.80;;;;;;5115701;27;20470;-78
2023/10/10 09:40:59;;;;;;;14.63;7.00;;;18.30;79.80;;;;;;5112766;27;20448;-78
2023/10/10 09:43:35;;;;;;;14.50;7.10;;;18.40;79.60;;;;;;5111665;27;20811;-80
2023/10/10 09:46:11;;;;;;;17.23;7.17;;;18.40;79.50;;;;;;5110354;27;20459;-78
2023/10/10 09:54:25;;;;;;;17.03;7.00;;;18.60;79.10;;;;;;5095184;27;21813;-78
2023/10/10 09:56:56;;;;;;;14.07;6.53;;;18.60;79.00;;;;;;5113293;27;20450;-78
2023/10/10 09:59:28;;;;;;;12.07;6.17;;;18.70;78.80;;;;;;5107792;27;20455;-78
2023/10/10 10:02:03;;;;;;;12.20;6.37;;;18.70;78.60;;;;;;5096787;27;20473;-78
2023/10/10 10:04:41;;;;;;;14.60;7.40;;;18.80;78.40;;;;;;5091555;28;20503;-77
2023/10/10 10:07:28;;;;;;;15.17;6.77;;;18.80;78.20;;;;;;5092739;28;20451;-78
2023/10/10 10:10:16;;;;;;;18.70;6.47;;;18.80;78.00;;;;;;5089045;28;20441;-78
2023/10/10 10:13:13;;;;;;;12.60;6.40;;;18.90;77.80;;;;;;5096170;28;20440;-78
2023/10/10 10:15:54;;;;;;;12.40;6.40;;;18.90;77.80;;;;;;5092809;28;20444;-79
2023/10/10 10:18:44;;;;;;;12.80;5.83;;;19.00;77.70;;;;;;5087467;28;20614;-80
2023/10/10 10:21:19;;;;;;;14.63;6.70;;;19.00;77.70;;;;;;5072646;28;20510;-77
2023/10/10 10:23:56;;;;;;;13.83;6.33;;;19.10;77.40;;;;;;5082673;28;20540;-78
2023/10/10 10:26:41;;;;;;;15.10;6.53;;;19.10;77.40;;;;;;5094602;28;20445;-78
2023/10/10 10:29:26;;;;;;;16.33;6.70;;;19.20;77.20;;;;;;5094969;28;20953;-78
2023/10/10 10:32:00;;;;;;;12.60;6.20;;;19.20;77.20;;;;;;5092411;28;20472;-79
2023/10/10 10:34:35;;;;;;;17.50;6.87;;;19.30;76.90;;;;;;5092698;28;20607;-79
2023/10/10 10:37:13;;;;;;;18.00;6.10;;;19.30;76.80;;;;;;5079733;28;20453;-78
2023/10/10 10:40:23;;;;;;;16.50;6.53;;;19.40;76.70;;;;;;5069900;28;20452;-79
2023/10/10 10:42:37;;;;;;;13.07;6.30;;;19.40;76.50;;;;;;5088261;28;20461;-80
2023/10/10 10:45:26;;;;;;;12.80;6.10;;;19.50;76.40;;;;;;5091622;28;20471;-79
2023/10/10 10:48:00;;;;;;;11.77;5.97;;;19.60;76.00;;;;;;5075819;28;20461;-78
2023/10/10 10:50:42;;;;;;;14.00;6.40;;;19.60;75.90;;;;;;5093637;28;20459;-79
2023/10/10 10:53:33;;;;;;;15.40;6.53;;;19.70;75.70;;;;;;5087298;28;20513;-78
2023/10/10 10:56:37;;;;;;;12.20;6.87;;;19.70;75.70;;;;;;5081084;28;20477;-80
2023/10/10 10:59:12;;;;;;;12.83;6.27;;;19.80;75.50;;;;;;5088281;28;20506;-77
2023/10/10 11:01:51;;;;;;;18.73;5.90;;;19.80;75.10;;;;;;5089692;28;20583;-79
2023/10/10 11:04:42;;;;;;;10.97;5.70;;;19.90;75.00;;;;;;5085413;28;20456;-78
2023/10/10 11:07:26;;;;;;;10.17;6.20;;;19.90;74.90;;;;;;5091066;28;20455;-78
2023/10/10 11:10:06;;;;;;;14.93;6.70;;;20.00;74.80;;;;;;5091337;28;20448;-77
2023/10/10 11:12:37;;;;;;;17.23;6.17;;;20.00;74.70;;;;;;5096805;28;20787;-79
2023/10/10 11:15:10;;;;;;;17.70;6.70;;;20.10;74.40;;;;;;5089853;28;20759;-78
2023/10/10 11:17:42;;;;;;;15.50;6.70;;;20.20;74.10;;;;;;5075831;28;20457;-79
2023/10/10 11:22:55;;;;;;;15.43;6.30;;;20.20;74.00;;;;;;5090204;28;20547;-80
2023/10/10 11:25:41;;;;;;;14.00;6.83;;;20.30;74.00;;;;;;5093459;28;20476;-78
2023/10/10 11:28:21;;;;;;;15.37;6.50;;;20.30;73.90;;;;;;5084143;28;20460;-78
2023/10/10 11:30:51;;;;;;;15.90;6.50;;;20.40;73.90;;;;;;5097527;27;20465;-78
2023/10/10 11:33:46;;;;;;;14.27;7.27;;;20.50;73.70;;;;;;5108708;27;20945;-79
2023/10/10 11:36:22;;;;;;;18.37;7.00;;;20.50;73.50;;;;;;5109551;27;20455;-79
2023/10/10 11:38:55;;;;;;;13.27;6.23;;;20.50;73.50;;;;;;5120876;27;20968;-77
2023/10/10 11:41:28;;;;;;;17.37;7.00;;;20.50;73.50;;;;;;5091035;27;20998;-79
2023/10/10 11:44:03;;;;;;;16.67;6.73;;;20.50;73.40;;;;;;5115524;27;20455;-80
2023/10/10 11:46:33;;;;;;;13.70;6.60;;;20.60;73.30;;;;;;5115756;27;20463;-79
2023/10/10 11:49:01;;;;;;;17.57;7.27;;;20.60;73.20;;;;;;5114641;27;21124;-78
2023/10/10 11:51:37;;;;;;;16.47;7.50;;;20.70;73.00;;;;;;5111722;27;20798;-80
2023/10/10 11:54:06;;;;;;;12.23;5.27;;;20.70;72.90;;;;;;5114863;27;20512;-79
2023/10/10 11:56:35;;;;;;;15.27;6.23;;;20.70;73.00;;;;;;5095623;27;20465;-78
2023/10/10 11:59:09;;;;;;;12.57;6.67;;;20.70;72.80;;;;;;5097681;27;20496;-79
2023/10/10 12:02:07;;;;;;;15.97;6.90;;;20.80;72.70;;;;;;5107132;27;20556;-78
2023/10/10 12:04:37;;;;;;;15.57;6.97;;;20.80;72.70;;;;;;5108792;27;20459;-78
2023/10/10 12:07:05;;;;;;;14.90;6.30;;;20.80;72.70;;;;;;5107437;27;20590;-79
2023/10/10 12:09:34;;;;;;;15.53;6.50;;;20.80;72.60;;;;;;5104160;27;20461;-77
2023/10/10 12:12:03;;;;;;;12.40;6.07;;;20.90;72.40;;;;;;5114150;27;20989;-78
2023/10/10 12:14:34;;;;;;;11.43;6.10;;;20.90;72.30;;;;;;5082520;28;20464;-78
2023/10/10 12:17:06;;;;;;;11.77;6.33;;;20.90;72.10;;;;;;5109315;27;20565;-78
2023/10/10 12:19:43;;;;;;;11.63;6.47;;;21.00;71.90;;;;;;5119960;27;20535;-78
2023/10/10 12:22:12;;;;;;;14.73;6.83;;;21.00;71.80;;;;;;5105262;27;20518;-79
2023/10/10 12:24:41;;;;;;;14.30;6.90;;;21.00;71.70;;;;;;5098740;28;20456;-78
2023/10/10 12:27:10;;;;;;;14.07;5.60;;;21.10;71.60;;;;;;5094108;27;20485;-79
2023/10/10 12:29:40;;;;;;;12.97;5.90;;;21.10;71.50;;;;;;5106654;27;20502;-80
2023/10/10 12:32:15;;;;;;;14.33;5.30;;;21.10;71.50;;;;;;5097887;27;21016;-80
2023/10/10 12:34:45;;;;;;;15.73;6.70;;;21.20;71.30;;;;;;5111496;27;20486;-79
2023/10/10 12:37:16;;;;;;;12.83;5.77;;;21.20;71.30;;;;;;5110811;27;20451;-79
2023/10/10 12:39:45;;;;;;;13.63;6.43;;;21.30;71.10;;;;;;5114047;27;20459;-79
2023/10/10 12:42:14;;;;;;;11.30;5.70;;;21.30;71.00;;;;;;5110892;27;20472;-79
2023/10/10 12:44:47;;;;;;;12.37;5.67;;;21.30;70.90;;;;;;5111092;27;20481;-79
2023/10/10 12:47:17;;;;;;;12.60;5.67;;;21.30;70.70;;;;;;5108565;27;20476;-78
2023/10/10 12:49:47;;;;;;;11.83;5.60;;;21.40;70.60;;;;;;5109649;27;21101;-78
2023/10/10 12:52:17;;;;;;;9.23;5.23;;;21.40;70.40;;;;;;5105965;27;20458;-78
2023/10/10 12:54:46;;;;;;;13.47;6.27;;;21.30;70.40;;;;;;5112692;27;20451;-78
2023/10/10 12:57:15;;;;;;;13.70;5.67;;;21.40;70.20;;;;;;5106080;27;20953;-77
2023/10/10 12:59:47;;;;;;;11.40;4.87;;;21.40;70.10;;;;;;5106201;27;20458;-78
2023/10/10 13:02:16;;;;;;;17.93;5.63;;;21.40;70.00;;;;;;5093069;27;20484;-79
2023/10/10 13:04:48;;;;;;;14.70;5.23;;;21.40;69.90;;;;;;5092995;28;20458;-78
2023/10/10 13:07:18;;;;;;;12.90;5.13;;;21.40;69.90;;;;;;5083201;28;21204;-77
2023/10/10 13:09:46;;;;;;;13.70;5.10;;;21.40;69.80;;;;;;5092377;28;20452;-78
2023/10/10 13:12:27;;;;;;;13.47;6.33;;;21.40;69.80;;;;;;5068739;28;20455;-78
2023/10/10 13:15:16;;;;;;;11.20;4.57;;;21.40;69.80;;;;;;5075362;28;20571;-78
2023/10/10 13:17:53;;;;;;;10.57;5.10;;;21.40;69.70;;;;;;5092882;28;20565;-79
2023/10/10 13:20:22;;;;;;;11.37;5.17;;;21.40;69.70;;;;;;5087930;28;20879;-78
2023/10/10 13:22:51;;;;;;;14.07;5.50;;;21.50;69.40;;;;;;5092703;28;20465;-78
2023/10/10 13:25:21;;;;;;;11.70;5.67;;;21.50;69.50;;;;;;5087993;28;20483;-79
2023/10/10 13:27:52;;;;;;;16.17;5.70;;;21.50;69.50;;;;;;5089426;28;20477;-78
2023/10/10 13:30:21;;;;;;;13.23;4.90;;;21.50;69.60;;;;;;5091127;28;20509;-79
2023/10/10 13:32:51;;;;;;;14.57;5.63;;;21.60;69.50;;;;;;5092695;28;20469;-78
2023/10/10 13:35:21;;;;;;;16.47;5.07;;;21.60;69.60;;;;;;5091255;28;20551;-78
2023/10/10 13:37:49;;;;;;;11.17;5.50;;;21.60;69.60;;;;;;5095657;28;20487;-79
2023/10/10 13:40:22;;;;;;;13.67;5.33;;;21.60;69.30;;;;;;5094360;28;20506;-79
2023/10/10 13:42:51;;;;;;;15.63;5.60;;;21.60;69.30;;;;;;5092688;28;20468;-78
2023/10/10 13:45:26;;;;;;;14.57;5.37;;;21.70;69.00;;;;;;5070046;28;21041;-78
2023/10/10 13:47:56;;;;;;;9.43;4.43;;;21.70;68.90;;;;;;5089838;28;20488;-78
2023/10/10 13:50:40;;;;;;;14.00;5.30;;;21.70;69.10;;;;;;5088847;28;20464;-78
2023/10/10 13:53:12;;;;;;;10.60;5.10;;;21.70;68.90;;;;;;5089477;28;20500;-78
2023/10/10 13:55:42;;;;;;;11.60;4.50;;;21.70;68.60;;;;;;5090865;28;20513;-78
2023/10/10 13:58:13;;;;;;;11.47;5.00;;;21.70;67.90;;;;;;5094292;28;20501;-78
2023/10/10 14:00:52;;;;;;;11.53;4.90;;;21.70;67.60;;;;;;5098182;27;21281;-78
2023/10/10 14:03:28;;;;;;;14.40;5.03;;;21.70;67.50;;;;;;5110739;27;20458;-78
2023/10/10 14:06:07;;;;;;;11.50;5.10;;;21.70;67.30;;;;;;5113736;27;20853;-78
2023/10/10 14:08:36;;;;;;;10.97;4.87;;;21.70;67.30;;;;;;5097156;27;20459;-77
2023/10/10 14:11:05;;;;;;;17.00;5.70;;;21.70;66.90;;;;;;5111918;27;20451;-79
2023/10/10 14:13:34;;;;;;;13.57;5.80;;;21.70;66.90;;;;;;5116519;27;20476;-79
2023/10/10 14:16:05;;;;;;;13.77;5.57;;;21.70;66.90;;;;;;5102488;27;20456;-79
2023/10/10 14:18:42;;;;;;;14.10;5.60;;;21.70;66.70;;;;;;5101819;28;20462;-79
2023/10/10 14:21:12;;;;;;;12.83;5.27;;;21.80;66.60;;;;;;5103577;27;20450;-79
2023/10/10 14:23:40;;;;;;;13.70;5.90;;;21.80;66.30;;;;;;5111932;27;20451;-78
2023/10/10 14:26:18;;;;;;;21.03;5.53;;;21.80;65.70;;;;;;5094267;27;20452;-78
2023/10/10 14:28:51;;;;;;;11.77;4.80;;;21.80;65.80;;;;;;5100214;28;20456;-78
2023/10/10 14:31:22;;;;;;;15.27;6.40;;;21.80;65.60;;;;;;5108159;28;20480;-78
2023/10/10 14:33:50;;;;;;;11.67;4.60;;;21.90;65.20;;;;;;5110582;28;20784;-78
2023/10/10 14:36:19;;;;;;;14.23;6.10;;;21.80;64.70;;;;;;5108423;28;20479;-75
2023/10/10 14:38:50;;;;;;;13.47;5.13;;;21.90;64.40;;;;;;5109002;27;20475;-77
2023/10/10 14:41:19;;;;;;;11.53;5.10;;;21.90;64.30;;;;;;5109187;28;20463;-76
2023/10/10 14:43:49;;;;;;;14.47;5.80;;;21.90;64.10;;;;;;5111868;28;20822;-79
2023/10/10 14:46:21;;;;;;;12.87;4.53;;;21.90;63.80;;;;;;5089389;28;20470;-79
2023/10/10 14:49:00;;;;;;;18.13;5.20;;;21.90;63.40;;;;;;5106666;28;20448;-78
2023/10/10 14:51:33;;;;;;;12.90;5.43;;;21.90;63.00;;;;;;5106865;28;20482;-78
2023/10/10 14:54:06;;;;;;;12.73;5.77;;;21.90;62.70;;;;;;5108755;28;20763;-77
2023/10/10 14:56:35;;;;;;;10.47;5.50;;;21.90;62.30;;;;;;5113433;28;20470;-78
2023/10/10 14:59:05;;;;;;;11.30;5.07;;;21.90;62.00;;;;;;5112836;28;20438;-77
2023/10/10 15:01:36;;;;;;;16.23;7.00;;;21.80;61.90;;;;;;5079914;28;20549;-79
2023/10/10 15:04:08;;;;;;;13.30;5.37;;;21.80;61.40;;;;;;5073105;28;20457;-78
2023/10/10 15:06:39;;;;;;;13.93;5.93;;;21.80;61.50;;;;;;5089226;28;20532;-79
2023/10/10 15:09:13;;;;;;;11.77;5.57;;;21.80;61.40;;;;;;5087601;28;20594;-78